Aviation Digital Data Service (ADDS)

Output produced by METARs form (2201 UTC 19 April 2021)
found at http://aviationweather.gov/metar/data/
 
METAR text: EYKA 192150Z AUTO 00000KT 9999 NCD 07/01 Q1018
Conditions at: EYKA (KAUNAS , LT) observed 2150 UTC 19 April 2021
Temperature: 7.0°C (45°F)
Dewpoint: 1.0°C (34°F) [RH = 66%]
Pressure (altimeter): 30.06 inches Hg (1018.0 mb)
Winds: calm
Visibility: 6 or more miles (10+ km)
Ceiling: at least 12,000 feet AGL
Clouds: sky clear below 12,000 feet AGL
Weather: no significant weather observed at this time

METAR text: EYKA 192120Z AUTO 08003KT 9999 NCD 07/01 Q1019
Conditions at: EYKA (KAUNAS , LT) observed 2120 UTC 19 April 2021
Temperature: 7.0°C (45°F)
Dewpoint: 1.0°C (34°F) [RH = 66%]
Pressure (altimeter): 30.09 inches Hg (1019.0 mb)
Winds: from the E (80 degrees) at 3 MPH (3 knots; 1.5 m/s)
Visibility: 6 or more miles (10+ km)
Ceiling: at least 12,000 feet AGL
Clouds: sky clear below 12,000 feet AGL
Weather: no significant weather observed at this time

METAR text: EYKA 192050Z 00000KT CAVOK 08/01 Q1019
Conditions at: EYKA (KAUNAS , LT) observed 2050 UTC 19 April 2021
Temperature: 8.0°C (46°F)
Dewpoint: 1.0°C (34°F) [RH = 61%]
Pressure (altimeter): 30.09 inches Hg (1019.0 mb)
Winds: calm
Visibility: 6 or more miles (10+ km)
Ceiling: ceiling and visibility are OK
Clouds: unknown
Weather: no significant weather observed at this time

METAR text: EYKA 192020Z 08003KT CAVOK 07/01 Q1019
Conditions at: EYKA (KAUNAS , LT) observed 2020 UTC 19 April 2021
Temperature: 7.0°C (45°F)
Dewpoint: 1.0°C (34°F) [RH = 66%]
Pressure (altimeter): 30.09 inches Hg (1019.0 mb)
Winds: from the E (80 degrees) at 3 MPH (3 knots; 1.5 m/s)
Visibility: 6 or more miles (10+ km)
Ceiling: ceiling and visibility are OK
Clouds: unknown
Weather: no significant weather observed at this time

Forecast for: EYKA (KAUNAS , LT)
Text: TAF EYKA 191700Z 1918/2018 VRB04KT CAVOK
Forecast period: 1800 UTC 19 April 2021 to 0000 UTC 20 April 2021
Forecast type: FROM: standard forecast or significant change
Winds: variable direction winds at 5 MPH (4 knots; 2.1 m/s)
Visibility: 6 or more miles (10+ km)
Ceiling: unknown
Clouds: missing
Weather: NSW  (no significant weather)
Text: BECMG 2000/2002 9000 BKN035
Forecast period: 0000 to 1800 UTC 20 April 2021
Forecast type: BECOMING: Conditions expected to become as follows by 0200 UTC 20 April 2021
Winds: variable direction winds at 5 MPH (4 knots; 2.1 m/s)
Visibility: 6 miles (9 km)
Ceiling: 3500 feet AGL
Clouds: broken clouds at 3500 feet AGL
Weather: NSW  (no significant weather)
Text: TEMPO 2003/2012 BKN020CB
Forecast period: 0300 to 1200 UTC 20 April 2021
Forecast type: TEMPORARY: The following changes expected for less than half the time period
Visibility: missing
Ceiling: 2000 feet AGL
Clouds: broken clouds at 2000 feet AGL
Weather: no significant weather forecast for this period
Text: TEMPO 2012/2018 01015KT 5000 SHRA BKN020CB
Forecast period: 1200 to 1800 UTC 20 April 2021
Forecast type: TEMPORARY: The following changes expected for less than half the time period
Winds: from the N (10 degrees) at 17 MPH (15 knots; 7.7 m/s)
Visibility: 3 miles (5 km)
Ceiling: 2000 feet AGL
Clouds: broken clouds at 2000 feet AGL
Weather: SHRA  (rain showers)